Time;durP1;ratioP1;P1;durP2;ratioP2;P2;SDS_P1;SDS_P2;PMS_P1;PMS_P2;Temp;Humidity;BMP_temperature;BMP_pressure;BME280_temperature;BME280_humidity;BME280_pressure;Samples;Min_cycle;Max_cycle;Signal;HPM_P1;HPM_P2
2024/02/25 00:00:26;;;;;;;5.23;4.73;;;5.20;99.90;;;;;;4993208;28;20176;-72
2024/02/25 00:02:52;;;;;;;7.30;3.90;;;5.20;99.90;;;;;;4992609;28;20197;-72
2024/02/25 00:05:18;;;;;;;4.23;2.80;;;5.10;99.90;;;;;;4991692;28;20260;-72
2024/02/25 00:07:43;;;;;;;3.37;3.07;;;5.00;99.90;;;;;;4992660;28;20535;-72
2024/02/25 00:10:09;;;;;;;2.73;2.47;;;4.90;99.90;;;;;;4993238;28;20169;-72
2024/02/25 00:12:35;;;;;;;2.70;2.10;;;4.90;99.90;;;;;;4987876;28;20228;-72
2024/02/25 00:15:00;;;;;;;2.27;2.07;;;4.90;99.90;;;;;;4973356;28;20492;-72
2024/02/25 00:17:26;;;;;;;2.47;2.23;;;4.90;99.90;;;;;;4975464;28;20165;-72
2024/02/25 00:19:51;;;;;;;2.10;1.90;;;4.90;99.90;;;;;;4976713;28;20178;-72
2024/02/25 00:22:17;;;;;;;6.40;2.80;;;5.10;99.90;;;;;;4978798;28;20713;-72
2024/02/25 00:24:42;;;;;;;4.60;2.60;;;5.10;99.90;;;;;;4996413;28;20200;-72
2024/02/25 00:27:08;;;;;;;3.07;2.77;;;5.20;99.90;;;;;;4996087;28;20546;-72
2024/02/25 00:29:33;;;;;;;2.77;2.23;;;5.30;99.90;;;;;;4996294;28;20651;-72
2024/02/25 00:31:59;;;;;;;3.43;2.47;;;5.30;99.90;;;;;;4995765;28;20690;-72
2024/02/25 00:34:25;;;;;;;2.40;2.13;;;5.30;99.90;;;;;;4976510;28;20329;-72
2024/02/25 00:36:51;;;;;;;3.30;2.40;;;5.30;99.90;;;;;;4976533;28;20488;-72
2024/02/25 00:39:19;;;;;;;2.93;2.63;;;5.30;99.90;;;;;;4976276;28;20659;-72
2024/02/25 00:41:45;;;;;;;2.90;2.27;;;5.30;99.90;;;;;;4976347;28;20194;-72
2024/02/25 00:44:10;;;;;;;3.50;2.83;;;5.30;99.90;;;;;;4993067;28;20427;-71
2024/02/25 00:46:36;;;;;;;2.70;2.40;;;5.20;99.90;;;;;;4995982;28;20630;-72
2024/02/25 00:49:01;;;;;;;4.70;3.80;;;5.20;99.90;;;;;;4995752;28;20258;-71
2024/02/25 00:51:27;;;;;;;3.53;3.23;;;5.10;99.90;;;;;;4995513;28;20176;-73
2024/02/25 00:53:53;;;;;;;3.17;2.73;;;5.10;99.90;;;;;;4980689;28;20209;-71
2024/02/25 00:56:18;;;;;;;5.17;3.30;;;5.10;99.90;;;;;;4975923;28;20169;-72
2024/02/25 00:58:44;;;;;;;3.50;1.90;;;5.00;99.90;;;;;;4976013;28;20597;-71
2024/02/25 01:01:16;;;;;;;2.80;2.30;;;5.00;99.90;;;;;;4976231;28;20173;-73
2024/02/25 01:03:42;;;;;;;3.10;2.57;;;5.00;99.90;;;;;;4988651;28;20200;-72
2024/02/25 01:06:08;;;;;;;2.80;2.60;;;5.00;99.90;;;;;;4995345;28;20470;-72
2024/02/25 01:08:38;;;;;;;2.50;2.30;;;5.00;99.90;;;;;;4995186;28;20404;-72
2024/02/25 01:11:10;;;;;;;2.07;1.90;;;5.00;99.90;;;;;;4995539;28;20150;-72
2024/02/25 01:13:36;;;;;;;1.90;1.80;;;5.00;99.90;;;;;;4981654;28;20457;-72
2024/02/25 01:16:02;;;;;;;2.57;1.80;;;5.10;99.90;;;;;;4975965;28;20436;-73
2024/02/25 01:18:31;;;;;;;2.43;1.60;;;5.10;99.90;;;;;;4975703;28;20166;-74
2024/02/25 01:20:57;;;;;;;2.03;1.83;;;5.00;99.90;;;;;;4975944;28;20925;-72
2024/02/25 01:23:22;;;;;;;3.63;1.83;;;4.90;99.90;;;;;;4985475;28;20424;-73
2024/02/25 01:25:48;;;;;;;1.90;1.80;;;4.90;99.90;;;;;;4993555;28;20181;-72
2024/02/25 01:28:13;;;;;;;4.37;1.73;;;4.90;99.90;;;;;;4993196;28;20556;-72
2024/02/25 01:30:39;;;;;;;3.00;2.60;;;4.90;99.90;;;;;;4994750;28;20242;-72
2024/02/25 01:33:04;;;;;;;3.13;2.50;;;4.90;99.90;;;;;;4989252;28;20220;-72
2024/02/25 01:35:30;;;;;;;4.37;3.00;;;4.90;99.90;;;;;;4994750;28;20320;-72
2024/02/25 01:37:56;;;;;;;3.47;2.87;;;4.90;99.90;;;;;;4994706;28;20536;-72
2024/02/25 01:40:22;;;;;;;3.50;2.53;;;5.00;99.90;;;;;;4993730;28;20259;-72
2024/02/25 01:43:05;;;;;;;3.00;2.70;;;5.00;99.90;;;;;;4978869;28;20197;-72
2024/02/25 01:45:30;;;;;;;2.20;2.00;;;5.00;99.90;;;;;;4993354;28;20400;-73
2024/02/25 01:47:56;;;;;;;2.10;1.80;;;4.90;99.90;;;;;;4994739;28;20492;-72
2024/02/25 01:50:23;;;;;;;2.37;2.10;;;4.90;99.90;;;;;;4994394;28;20176;-72
2024/02/25 01:52:53;;;;;;;2.50;1.80;;;4.80;99.90;;;;;;4989250;28;20803;-72
2024/02/25 01:55:23;;;;;;;3.37;2.17;;;4.70;99.90;;;;;;4975512;28;20472;-72
2024/02/25 01:57:48;;;;;;;2.13;1.97;;;4.70;99.90;;;;;;4973542;28;20421;-72
2024/02/25 02:00:18;;;;;;;2.43;1.97;;;4.70;99.90;;;;;;4975208;28;20451;-72
2024/02/25 02:02:44;;;;;;;1.67;1.57;;;4.70;99.90;;;;;;4978951;28;20199;-74
2024/02/25 02:05:10;;;;;;;2.30;1.50;;;4.70;99.90;;;;;;4994316;28;20417;-72
2024/02/25 02:07:38;;;;;;;2.30;1.60;;;4.80;99.90;;;;;;4994370;28;20169;-72
2024/02/25 02:10:09;;;;;;;2.63;1.90;;;4.90;99.90;;;;;;4994407;28;20973;-72
2024/02/25 02:12:41;;;;;;;2.07;1.87;;;4.90;99.90;;;;;;4991140;28;20456;-72
2024/02/25 02:15:08;;;;;;;1.50;1.40;;;5.00;99.90;;;;;;4974589;28;20393;-72
2024/02/25 02:17:34;;;;;;;2.37;1.63;;;5.00;99.90;;;;;;4975175;28;20508;-72
2024/02/25 02:20:04;;;;;;;3.40;2.23;;;5.00;99.90;;;;;;4974525;28;20903;-72
2024/02/25 02:22:30;;;;;;;3.10;2.33;;;5.00;99.90;;;;;;4977089;28;20448;-73
2024/02/25 02:24:55;;;;;;;4.70;2.00;;;5.00;99.90;;;;;;4994964;28;20498;-72
2024/02/25 02:27:21;;;;;;;2.80;2.10;;;5.00;99.90;;;;;;4995411;28;20180;-72
2024/02/25 02:29:47;;;;;;;2.10;1.90;;;5.00;99.90;;;;;;4995481;28;20177;-72
2024/02/25 02:32:13;;;;;;;2.03;1.83;;;4.90;99.90;;;;;;4993967;28;20354;-72
2024/02/25 02:34:39;;;;;;;2.03;1.87;;;4.90;99.90;;;;;;4975001;28;20491;-72
2024/02/25 02:37:04;;;;;;;2.50;1.83;;;4.90;99.90;;;;;;4975158;28;20173;-72
2024/02/25 02:39:30;;;;;;;2.40;2.03;;;4.90;99.90;;;;;;4974982;28;20565;-72
2024/02/25 02:41:56;;;;;;;2.03;1.83;;;4.90;99.90;;;;;;4974218;28;20213;-71
2024/02/25 02:44:22;;;;;;;2.03;1.73;;;4.90;99.90;;;;;;4990863;28;20164;-73
2024/02/25 02:46:47;;;;;;;3.30;1.70;;;4.80;99.90;;;;;;4994094;28;20408;-71
2024/02/25 02:49:13;;;;;;;1.70;1.33;;;4.80;99.90;;;;;;4993885;28;20169;-72
2024/02/25 02:51:39;;;;;;;2.20;1.87;;;4.70;99.90;;;;;;4993421;28;20252;-72
2024/02/25 02:54:04;;;;;;;1.90;1.80;;;4.60;99.90;;;;;;4978905;28;20200;-72
2024/02/25 02:56:31;;;;;;;1.70;1.50;;;4.60;99.90;;;;;;4974000;28;20212;-72
2024/02/25 02:58:57;;;;;;;1.93;1.73;;;4.70;99.90;;;;;;4974547;28;20190;-72
2024/02/25 03:01:23;;;;;;;1.80;1.70;;;4.70;99.90;;;;;;4974476;28;20757;-72
2024/02/25 03:03:49;;;;;;;2.87;2.30;;;4.70;99.90;;;;;;4986147;28;20311;-72
2024/02/25 03:06:16;;;;;;;1.63;1.53;;;4.70;99.90;;;;;;4993458;28;20408;-72
2024/02/25 03:08:42;;;;;;;2.17;1.97;;;4.70;99.90;;;;;;4993658;28;20412;-72
2024/02/25 03:11:08;;;;;;;2.10;1.87;;;4.70;99.90;;;;;;4993773;28;20527;-72
2024/02/25 03:13:33;;;;;;;2.00;1.80;;;4.60;99.90;;;;;;4983282;28;20203;-72
2024/02/25 03:16:00;;;;;;;2.03;1.80;;;4.60;99.90;;;;;;4972614;28;20217;-72
2024/02/25 03:18:26;;;;;;;1.87;1.50;;;4.60;99.90;;;;;;4974344;28;20221;-71
2024/02/25 03:20:52;;;;;;;1.83;1.70;;;4.70;99.90;;;;;;4973779;28;20413;-71
2024/02/25 03:23:17;;;;;;;2.40;1.53;;;4.70;99.90;;;;;;4981267;28;20192;-71
2024/02/25 03:25:43;;;;;;;2.63;1.80;;;4.80;99.90;;;;;;4990587;28;20431;-72
2024/02/25 03:28:09;;;;;;;2.60;1.60;;;4.80;99.90;;;;;;4975793;28;20185;-71
2024/02/25 03:30:34;;;;;;;2.83;2.00;;;4.80;99.90;;;;;;4973864;28;20279;-71
2024/02/25 03:33:01;;;;;;;2.00;1.83;;;4.80;99.90;;;;;;4978639;28;20269;-71
2024/02/25 03:35:30;;;;;;;3.00;1.80;;;4.80;99.90;;;;;;4993076;28;20183;-71
2024/02/25 03:37:56;;;;;;;2.00;1.80;;;4.70;99.90;;;;;;4992817;28;20408;-72
2024/02/25 03:40:22;;;;;;;1.80;1.70;;;4.70;99.90;;;;;;4993035;28;20449;-72
2024/02/25 03:42:48;;;;;;;3.73;1.90;;;4.70;99.90;;;;;;4989507;28;20432;-71
2024/02/25 03:45:14;;;;;;;2.30;1.90;;;4.90;99.90;;;;;;4973449;28;20205;-72
2024/02/25 03:47:40;;;;;;;2.03;1.83;;;4.80;99.90;;;;;;4984372;28;20419;-72
2024/02/25 03:50:08;;;;;;;2.20;2.00;;;4.90;99.90;;;;;;4996143;28;20424;-71
2024/02/25 03:52:34;;;;;;;2.33;2.13;;;5.00;99.90;;;;;;4998622;28;20204;-72
2024/02/25 03:55:00;;;;;;;2.33;2.00;;;4.90;99.90;;;;;;4977855;28;20897;-72
2024/02/25 03:57:25;;;;;;;2.80;2.60;;;4.90;99.90;;;;;;4975880;28;20634;-72
2024/02/25 03:59:51;;;;;;;2.80;2.57;;;4.80;99.90;;;;;;4977204;28;20456;-71
2024/02/25 04:02:17;;;;;;;3.80;2.50;;;4.70;99.90;;;;;;4977106;28;20197;-71
2024/02/25 04:04:46;;;;;;;1.93;1.73;;;4.70;99.90;;;;;;4995815;28;20176;-72
2024/02/25 04:07:15;;;;;;;2.73;2.07;;;4.70;99.90;;;;;;4996694;28;20171;-72
2024/02/25 04:09:41;;;;;;;2.93;2.43;;;4.70;99.90;;;;;;4996557;28;20784;-71
2024/02/25 04:12:10;;;;;;;2.20;2.00;;;4.70;99.90;;;;;;4996398;28;21790;-71
2024/02/25 04:14:36;;;;;;;2.60;2.30;;;4.60;99.90;;;;;;4978907;28;20453;-71
2024/02/25 04:17:02;;;;;;;2.27;2.07;;;4.60;99.90;;;;;;4977219;28;20409;-71
2024/02/25 04:19:28;;;;;;;3.33;2.53;;;4.60;99.90;;;;;;4977037;28;20685;-71
2024/02/25 04:21:53;;;;;;;2.83;2.43;;;4.50;99.90;;;;;;4976696;28;20405;-71
2024/02/25 04:24:19;;;;;;;3.00;2.70;;;4.60;99.90;;;;;;4991797;28;20652;-71
2024/02/25 04:26:47;;;;;;;2.33;2.10;;;4.50;99.90;;;;;;4996195;28;20172;-71
2024/02/25 04:29:12;;;;;;;2.87;2.33;;;4.50;99.90;;;;;;4996343;28;20173;-71
2024/02/25 04:31:43;;;;;;;2.43;2.23;;;4.60;99.90;;;;;;4996165;28;20458;-71
2024/02/25 04:34:09;;;;;;;2.97;2.67;;;4.60;99.90;;;;;;4980860;28;20315;-72
2024/02/25 04:36:34;;;;;;;3.20;2.90;;;4.60;99.90;;;;;;4976808;28;20444;-72
2024/02/25 04:39:00;;;;;;;2.87;2.67;;;4.70;99.90;;;;;;4975123;28;20448;-72
2024/02/25 04:41:26;;;;;;;3.03;2.80;;;4.70;99.90;;;;;;4976919;28;20565;-71
2024/02/25 04:43:52;;;;;;;2.60;2.20;;;4.80;99.90;;;;;;4987401;28;20194;-72
2024/02/25 04:46:18;;;;;;;3.33;2.90;;;4.90;99.90;;;;;;4996001;28;20490;-71
2024/02/25 04:48:43;;;;;;;3.13;2.83;;;4.90;99.90;;;;;;4995614;28;20184;-72
2024/02/25 04:51:09;;;;;;;4.27;2.50;;;4.90;99.90;;;;;;4995683;28;20173;-72
2024/02/25 04:53:37;;;;;;;2.87;2.57;;;5.00;99.90;;;;;;4986137;28;20196;-72
2024/02/25 04:56:03;;;;;;;2.77;2.57;;;5.00;99.90;;;;;;4976087;28;20169;-73
2024/02/25 04:58:29;;;;;;;3.33;2.90;;;5.00;99.90;;;;;;4974829;28;20412;-72
2024/02/25 05:00:54;;;;;;;3.47;2.93;;;5.00;99.90;;;;;;4975862;28;20491;-73
2024/02/25 05:03:20;;;;;;;3.30;2.80;;;5.00;99.90;;;;;;4982339;28;20192;-73
2024/02/25 05:05:46;;;;;;;2.90;2.70;;;5.00;99.90;;;;;;4995789;28;20667;-73
2024/02/25 05:08:11;;;;;;;3.30;3.00;;;5.00;99.90;;;;;;4994294;28;20201;-72
2024/02/25 05:10:39;;;;;;;3.70;2.80;;;5.00;99.90;;;;;;4995546;28;20168;-72
2024/02/25 05:13:05;;;;;;;2.60;2.40;;;5.00;99.90;;;;;;4991050;28;20208;-73
2024/02/25 05:15:32;;;;;;;3.00;2.77;;;4.90;99.90;;;;;;4976170;28;20495;-72
2024/02/25 05:17:58;;;;;;;2.50;2.30;;;4.90;99.90;;;;;;4975958;28;20413;-72
2024/02/25 05:20:25;;;;;;;3.60;3.30;;;4.80;99.90;;;;;;4975767;28;20501;-72
2024/02/25 05:22:51;;;;;;;3.47;3.17;;;4.80;99.90;;;;;;4978034;28;20436;-71
2024/02/25 05:25:17;;;;;;;3.00;2.80;;;4.80;99.90;;;;;;4995239;28;20416;-71
2024/02/25 05:27:43;;;;;;;3.10;2.80;;;4.80;99.90;;;;;;4993844;28;20650;-72
2024/02/25 05:30:09;;;;;;;3.73;3.20;;;4.80;99.90;;;;;;4994495;28;20173;-72
2024/02/25 05:32:35;;;;;;;2.83;2.63;;;4.70;99.90;;;;;;5022422;23;20522;-71
2024/02/25 05:35:07;;;;;;;2.80;2.60;;;4.70;99.90;;;;;;5033797;28;20425;-71
2024/02/25 05:37:33;;;;;;;3.03;2.80;;;4.60;99.90;;;;;;5019432;28;20388;-72
2024/02/25 05:39:59;;;;;;;3.20;2.90;;;4.80;99.90;;;;;;5014295;28;20525;-72
2024/02/25 05:42:25;;;;;;;3.20;2.90;;;4.80;99.90;;;;;;5010549;28;20947;-72
2024/02/25 05:44:53;;;;;;;3.03;2.80;;;4.90;99.90;;;;;;4995688;28;20184;-72
2024/02/25 05:47:19;;;;;;;3.00;2.77;;;4.80;99.90;;;;;;4994621;28;20260;-72
2024/02/25 05:49:45;;;;;;;3.23;2.93;;;4.80;99.90;;;;;;4994271;28;20443;-72
2024/02/25 05:52:10;;;;;;;3.77;2.93;;;4.90;99.90;;;;;;4994193;28;20388;-72
2024/02/25 05:54:36;;;;;;;4.23;3.30;;;4.80;99.90;;;;;;5010180;28;20196;-72
2024/02/25 05:57:02;;;;;;;3.10;2.63;;;4.80;99.90;;;;;;5013705;28;20164;-72
2024/02/25 05:59:28;;;;;;;3.20;2.67;;;4.90;99.90;;;;;;5012358;28;20414;-72
2024/02/25 06:01:53;;;;;;;3.10;2.80;;;4.90;99.90;;;;;;5012354;28;20411;-72
2024/02/25 06:04:19;;;;;;;3.70;2.77;;;4.90;99.90;;;;;;4999958;28;20192;-72
2024/02/25 06:06:52;;;;;;;3.13;2.57;;;4.80;99.90;;;;;;4994335;28;20182;-73
2024/02/25 06:09:18;;;;;;;6.57;3.57;;;4.80;99.90;;;;;;4992693;28;20180;-71
2024/02/25 06:11:43;;;;;;;3.33;3.00;;;4.70;99.90;;;;;;4993029;28;20431;-71
2024/02/25 06:14:09;;;;;;;3.57;3.27;;;4.70;99.90;;;;;;5005041;28;20279;-71
2024/02/25 06:16:34;;;;;;;3.13;2.87;;;4.60;99.90;;;;;;5012231;28;20179;-71
2024/02/25 06:19:00;;;;;;;2.70;2.50;;;4.50;99.90;;;;;;5013384;28;20168;-72
2024/02/25 06:21:26;;;;;;;4.17;2.80;;;4.30;99.90;;;;;;5013737;28;20175;-72
2024/02/25 06:23:52;;;;;;;3.30;2.73;;;4.20;99.90;;;;;;5013245;28;20193;-72
2024/02/25 06:26:18;;;;;;;3.40;3.10;;;4.10;99.90;;;;;;5013386;28;20417;-72
2024/02/25 06:28:44;;;;;;;5.77;4.40;;;4.00;99.90;;;;;;5013325;28;20167;-72
2024/02/25 06:31:09;;;;;;;4.90;4.33;;;3.90;99.90;;;;;;5013420;28;20187;-72
2024/02/25 06:33:35;;;;;;;4.73;3.60;;;3.90;99.90;;;;;;5005575;28;20467;-71
2024/02/25 06:36:01;;;;;;;5.70;3.87;;;3.80;99.90;;;;;;4992240;28;20176;-71
2024/02/25 06:38:26;;;;;;;6.63;3.47;;;3.90;99.90;;;;;;4993319;28;20165;-71
2024/02/25 06:40:52;;;;;;;3.50;3.20;;;3.90;99.90;;;;;;4993678;28;20164;-71
2024/02/25 06:43:18;;;;;;;4.00;3.60;;;4.00;99.90;;;;;;4998321;28;20386;-71
2024/02/25 06:45:44;;;;;;;3.03;2.83;;;4.00;99.90;;;;;;5013316;28;20882;-71
2024/02/25 06:48:09;;;;;;;3.60;3.30;;;4.00;99.90;;;;;;5013189;28;20175;-73
2024/02/25 06:50:35;;;;;;;3.70;3.20;;;4.00;99.90;;;;;;5012863;28;20172;-72
2024/02/25 06:53:01;;;;;;;3.53;3.23;;;4.00;99.90;;;;;;5010261;28;20229;-73
2024/02/25 06:55:27;;;;;;;3.27;2.97;;;4.00;99.90;;;;;;4993209;28;20419;-73
2024/02/25 06:57:52;;;;;;;2.57;2.37;;;4.00;99.90;;;;;;4992965;28;20403;-72
2024/02/25 07:00:18;;;;;;;2.93;2.73;;;4.10;99.90;;;;;;4993401;28;20280;-71
2024/02/25 07:02:44;;;;;;;3.63;3.07;;;4.10;99.90;;;;;;4992314;28;20193;-71
2024/02/25 07:05:10;;;;;;;2.67;2.47;;;4.10;99.90;;;;;;4991782;28;20207;-70
2024/02/25 07:07:38;;;;;;;3.80;2.47;;;4.10;99.90;;;;;;4993397;28;20172;-72
2024/02/25 07:10:04;;;;;;;2.70;2.50;;;4.20;99.90;;;;;;4993103;28;20171;-72
2024/02/25 07:12:30;;;;;;;2.80;2.50;;;4.30;99.90;;;;;;4993119;28;20427;-72
2024/02/25 07:14:55;;;;;;;2.63;2.43;;;4.50;99.90;;;;;;5006063;28;20405;-71
2024/02/25 07:17:21;;;;;;;3.23;2.90;;;4.50;99.90;;;;;;4993477;28;20171;-71
2024/02/25 07:19:47;;;;;;;3.47;2.80;;;4.60;99.90;;;;;;4993537;28;20176;-72
2024/02/25 07:22:12;;;;;;;3.10;2.90;;;4.80;99.90;;;;;;4991377;28;20168;-72
2024/02/25 07:24:41;;;;;;;5.73;4.07;;;4.90;99.90;;;;;;5009169;28;20167;-71
2024/02/25 07:27:07;;;;;;;6.90;3.10;;;5.10;99.90;;;;;;5015917;28;20165;-72
2024/02/25 07:29:33;;;;;;;4.23;3.23;;;5.20;99.90;;;;;;5013358;28;20799;-72
2024/02/25 07:31:58;;;;;;;4.53;2.80;;;5.40;99.90;;;;;;5016740;28;20259;-72
2024/02/25 07:34:24;;;;;;;3.73;2.77;;;5.60;99.90;;;;;;5008444;28;20543;-71
2024/02/25 07:36:50;;;;;;;2.83;2.53;;;5.70;99.90;;;;;;5016394;28;20222;-73
2024/02/25 07:39:16;;;;;;;3.30;3.00;;;5.80;99.90;;;;;;5016575;28;20841;-72
2024/02/25 07:41:43;;;;;;;3.47;2.87;;;6.00;99.90;;;;;;5015042;28;20252;-72
2024/02/25 07:44:10;;;;;;;3.73;3.30;;;6.20;99.90;;;;;;5005371;28;20194;-72
2024/02/25 07:46:36;;;;;;;5.90;5.17;;;6.30;99.90;;;;;;4996157;28;20535;-72
2024/02/25 07:49:02;;;;;;;6.83;4.90;;;6.50;99.90;;;;;;4996437;28;20533;-72
2024/02/25 07:51:32;;;;;;;3.93;3.50;;;6.70;99.90;;;;;;4995338;28;20184;-72
2024/02/25 07:53:58;;;;;;;3.33;3.03;;;6.90;99.90;;;;;;5005795;28;20476;-72
2024/02/25 07:56:23;;;;;;;2.37;2.17;;;7.10;99.90;;;;;;5016179;28;20399;-72
2024/02/25 07:58:49;;;;;;;2.60;2.30;;;7.30;99.90;;;;;;5015922;28;20167;-71
2024/02/25 08:01:15;;;;;;;4.37;2.77;;;7.50;99.90;;;;;;5014893;28;20201;-73
2024/02/25 08:03:40;;;;;;;2.90;2.60;;;7.70;99.90;;;;;;5009236;28;20740;-74
2024/02/25 08:06:06;;;;;;;3.00;2.30;;;7.80;99.90;;;;;;4996866;28;20643;-71
2024/02/25 08:08:32;;;;;;;1.87;1.77;;;7.70;99.90;;;;;;4996803;28;20177;-72
2024/02/25 08:10:58;;;;;;;1.93;1.60;;;7.80;99.90;;;;;;4995275;28;20448;-71
2024/02/25 08:13:23;;;;;;;2.37;1.90;;;7.80;99.90;;;;;;5000352;28;20252;-71
2024/02/25 08:15:49;;;;;;;1.60;1.50;;;7.90;99.90;;;;;;5016420;28;20169;-72
2024/02/25 08:18:14;;;;;;;1.90;1.70;;;7.80;99.90;;;;;;5014493;28;20169;-71
2024/02/25 08:20:40;;;;;;;2.17;1.70;;;7.90;99.90;;;;;;5015759;28;20555;-72
2024/02/25 08:23:06;;;;;;;2.87;2.03;;;8.00;99.90;;;;;;5012606;28;20595;-71
2024/02/25 08:25:31;;;;;;;1.60;1.50;;;8.10;99.90;;;;;;4996454;28;20174;-71
2024/02/25 08:27:57;;;;;;;4.77;2.17;;;8.10;99.90;;;;;;4996038;28;20174;-71
2024/02/25 08:30:23;;;;;;;3.10;2.00;;;8.10;99.90;;;;;;4996255;28;20259;-72
2024/02/25 08:32:50;;;;;;;1.97;1.80;;;8.00;99.90;;;;;;4994291;28;20226;-72
2024/02/25 08:35:15;;;;;;;2.10;1.80;;;8.10;99.90;;;;;;5014716;28;20403;-72
2024/02/25 08:37:41;;;;;;;3.33;1.90;;;8.20;99.90;;;;;;5014681;28;20487;-72
2024/02/25 08:40:07;;;;;;;2.23;1.77;;;8.30;99.90;;;;;;5015144;28;20225;-72
2024/02/25 08:42:32;;;;;;;2.13;1.80;;;8.50;99.90;;;;;;5015261;28;20188;-72
2024/02/25 08:44:58;;;;;;;2.50;1.73;;;8.30;99.90;;;;;;4998633;28;20438;-72
2024/02/25 08:47:24;;;;;;;2.40;1.90;;;8.30;99.90;;;;;;4995551;28;20245;-72
2024/02/25 08:49:50;;;;;;;2.80;1.60;;;8.10;99.90;;;;;;4995383;28;20283;-71
2024/02/25 08:52:16;;;;;;;2.53;1.60;;;8.30;99.90;;;;;;4995679;28;20197;-72
2024/02/25 08:54:43;;;;;;;1.83;1.40;;;8.30;99.90;;;;;;5009498;28;20486;-72
2024/02/25 08:57:09;;;;;;;2.10;1.53;;;8.40;99.90;;;;;;5015168;28;20173;-72
2024/02/25 08:59:35;;;;;;;1.30;1.20;;;8.70;99.90;;;;;;5014966;28;20493;-73
2024/02/25 09:02:01;;;;;;;1.70;1.60;;;8.90;99.90;;;;;;5015211;28;20489;-72
2024/02/25 09:04:30;;;;;;;1.50;1.40;;;9.00;99.90;;;;;;5002661;28;20202;-72
2024/02/25 09:06:57;;;;;;;2.00;1.80;;;8.90;99.90;;;;;;4995165;28;20288;-72
2024/02/25 09:09:23;;;;;;;1.70;1.60;;;8.60;99.90;;;;;;4995200;28;20488;-71
2024/02/25 09:11:49;;;;;;;1.67;1.53;;;8.50;99.90;;;;;;4995144;28;20412;-72
2024/02/25 09:14:14;;;;;;;2.53;1.70;;;8.70;99.90;;;;;;5005158;28;20511;-71
2024/02/25 09:16:40;;;;;;;4.33;1.90;;;8.80;99.90;;;;;;5014893;28;20207;-71
2024/02/25 09:19:05;;;;;;;1.43;1.33;;;9.10;99.90;;;;;;5013225;28;20175;-70
2024/02/25 09:21:31;;;;;;;2.47;1.63;;;9.30;99.90;;;;;;5014344;28;20250;-72
2024/02/25 09:23:57;;;;;;;2.50;1.70;;;9.30;99.90;;;;;;5007518;28;20190;-72
2024/02/25 09:26:23;;;;;;;3.90;1.50;;;9.10;99.90;;;;;;5013695;28;20180;-70
2024/02/25 09:28:48;;;;;;;1.70;1.60;;;9.30;99.90;;;;;;5014246;28;20470;-71
2024/02/25 09:31:20;;;;;;;1.73;1.40;;;9.00;99.90;;;;;;5014394;28;20180;-72
2024/02/25 09:33:49;;;;;;;1.70;1.60;;;9.00;99.90;;;;;;5012258;28;20210;-73
2024/02/25 09:36:15;;;;;;;3.40;1.80;;;9.10;99.90;;;;;;5014530;28;20452;-72
2024/02/25 09:38:41;;;;;;;2.10;1.30;;;8.90;99.90;;;;;;5014266;28;20404;-72
2024/02/25 09:41:08;;;;;;;1.40;1.20;;;8.80;99.90;;;;;;5012663;28;20437;-71
2024/02/25 09:43:34;;;;;;;2.00;1.43;;;9.10;99.90;;;;;;5009746;28;20281;-71
2024/02/25 09:46:03;;;;;;;2.50;1.33;;;9.00;99.90;;;;;;4994656;28;20440;-70
2024/02/25 09:48:29;;;;;;;1.90;1.70;;;9.10;99.90;;;;;;4993751;28;20220;-71
2024/02/25 09:50:55;;;;;;;2.17;1.70;;;9.10;99.90;;;;;;4994617;28;20786;-71
2024/02/25 09:53:21;;;;;;;1.57;1.33;;;9.20;99.90;;;;;;4996704;28;20564;-71
2024/02/25 09:55:47;;;;;;;2.60;1.50;;;9.30;99.90;;;;;;5013786;28;20184;-72
2024/02/25 09:58:17;;;;;;;2.77;1.67;;;9.40;99.90;;;;;;5013831;28;20854;-71
2024/02/25 10:00:43;;;;;;;2.63;1.63;;;9.70;99.90;;;;;;5013664;28;20402;-71
2024/02/25 10:03:11;;;;;;;1.90;1.40;;;10.00;99.90;;;;;;5013108;28;20966;-71
2024/02/25 10:05:37;;;;;;;2.27;1.40;;;10.10;99.90;;;;;;4994087;28;20418;-71
2024/02/25 10:08:10;;;;;;;1.90;1.70;;;9.90;99.90;;;;;;4993861;28;20899;-72
2024/02/25 10:10:42;;;;;;;2.40;1.60;;;9.80;99.90;;;;;;5111080;27;20544;-71
2024/02/25 10:13:08;;;;;;;1.60;1.10;;;10.00;99.90;;;;;;5110202;28;20850;-70
2024/02/25 10:15:34;;;;;;;1.90;1.27;;;9.70;99.90;;;;;;5110177;28;20184;-70
2024/02/25 10:18:00;;;;;;;1.80;1.23;;;9.70;99.90;;;;;;5110202;28;20400;-71
2024/02/25 10:20:26;;;;;;;2.17;1.40;;;9.40;99.90;;;;;;5110459;28;20172;-70
2024/02/25 10:23:08;;;;;;;1.77;1.20;;;9.60;99.90;;;;;;5110355;28;20863;-70
2024/02/25 10:25:35;;;;;;;1.90;1.30;;;9.90;99.90;;;;;;5088422;28;20207;-70
2024/02/25 10:28:13;;;;;;;1.17;1.00;;;10.20;99.90;;;;;;5088479;28;20848;-71
2024/02/25 10:30:39;;;;;;;1.67;0.70;;;10.30;99.90;;;;;;5089814;28;20421;-69
2024/02/25 10:33:14;;;;;;;2.13;1.20;;;10.30;99.90;;;;;;5089619;28;20496;-71
2024/02/25 10:35:40;;;;;;;0.87;0.70;;;10.50;99.90;;;;;;5090064;28;20173;-71
2024/02/25 10:38:09;;;;;;;1.03;0.70;;;10.70;99.90;;;;;;5089780;28;20407;-72
2024/02/25 10:40:35;;;;;;;1.00;0.70;;;10.50;99.30;;;;;;5089535;28;20175;-70
2024/02/25 10:43:01;;;;;;;1.00;0.80;;;10.40;99.60;;;;;;5089417;28;20430;-71
2024/02/25 10:45:28;;;;;;;1.20;0.83;;;10.50;99.80;;;;;;5108458;28;20432;-70
2024/02/25 10:47:55;;;;;;;0.97;0.60;;;10.50;99.40;;;;;;5109894;28;20459;-70
2024/02/25 10:50:23;;;;;;;1.20;0.60;;;10.60;99.50;;;;;;5109529;28;20990;-70
2024/02/25 10:52:50;;;;;;;0.90;0.53;;;10.80;98.10;;;;;;5109604;28;20437;-71
2024/02/25 10:55:17;;;;;;;1.00;0.70;;;10.70;98.20;;;;;;5091757;28;20442;-70
2024/02/25 10:57:43;;;;;;;0.80;0.60;;;10.40;98.50;;;;;;5088989;28;20443;-71
2024/02/25 11:00:11;;;;;;;1.03;0.67;;;10.50;97.80;;;;;;5089245;28;20403;-71
2024/02/25 11:02:37;;;;;;;1.47;0.60;;;10.70;97.70;;;;;;5089242;28;20438;-72
2024/02/25 11:05:04;;;;;;;1.43;0.70;;;10.70;97.20;;;;;;5104944;28;20417;-70
2024/02/25 11:07:29;;;;;;;1.33;0.70;;;10.70;96.80;;;;;;5109829;28;20409;-70
2024/02/25 11:09:55;;;;;;;0.90;0.80;;;10.90;96.80;;;;;;5109735;28;20446;-70
2024/02/25 11:12:22;;;;;;;1.23;0.80;;;10.90;96.50;;;;;;5109441;28;20175;-71
2024/02/25 11:15:08;;;;;;;0.90;0.70;;;11.00;96.90;;;;;;5095939;28;20537;-70
2024/02/25 11:17:39;;;;;;;1.10;0.90;;;11.30;96.20;;;;;;5107260;28;20475;-70
2024/02/25 11:20:07;;;;;;;1.10;0.90;;;11.40;96.00;;;;;;5107425;28;20413;-70
2024/02/25 11:22:47;;;;;;;0.80;0.60;;;12.40;96.00;;;;;;5095581;28;20863;-71
2024/02/25 11:25:28;;;;;;;1.80;0.83;;;13.00;93.50;;;;;;5094108;28;20410;-70
2024/02/25 11:27:58;;;;;;;1.10;0.80;;;14.30;92.60;;;;;;5095452;28;20511;-70
2024/02/25 11:30:40;;;;;;;1.33;1.00;;;15.60;89.40;;;;;;5085135;28;20443;-70
2024/02/25 11:33:41;;;;;;;1.20;0.80;;;15.90;84.90;;;;;;5093872;22;20487;-73
2024/02/25 11:36:09;;;;;;;1.50;0.87;;;16.50;79.90;;;;;;5035879;28;20410;-72
2024/02/25 11:38:35;;;;;;;1.47;1.10;;;17.80;77.90;;;;;;5037077;28;20493;-72
2024/02/25 11:41:02;;;;;;;1.20;0.93;;;17.30;77.10;;;;;;5034259;28;20445;-73
2024/02/25 11:43:28;;;;;;;1.33;1.00;;;17.30;75.80;;;;;;5037085;28;20426;-72
2024/02/25 11:45:57;;;;;;;1.30;0.80;;;17.60;73.10;;;;;;5055369;28;20407;-73
2024/02/25 11:48:22;;;;;;;1.37;0.90;;;16.90;74.90;;;;;;5055306;28;20194;-72
2024/02/25 11:50:49;;;;;;;1.30;0.80;;;16.90;72.70;;;;;;5055205;28;20437;-73
2024/02/25 11:53:15;;;;;;;1.27;0.90;;;16.70;72.30;;;;;;5054437;28;20197;-72
2024/02/25 11:55:42;;;;;;;1.10;0.90;;;17.30;73.50;;;;;;5055404;28;20437;-73
2024/02/25 11:58:08;;;;;;;1.57;0.97;;;17.80;71.10;;;;;;5055125;28;20220;-72
2024/02/25 12:00:36;;;;;;;2.07;0.80;;;19.50;67.60;;;;;;5055219;28;20801;-72
2024/02/25 12:03:02;;;;;;;1.40;0.80;;;20.40;65.80;;;;;;5054858;28;20524;-72
2024/02/25 12:05:30;;;;;;;1.03;0.80;;;21.60;62.10;;;;;;5055313;28;20416;-72
2024/02/25 12:07:57;;;;;;;1.27;0.90;;;21.90;57.20;;;;;;5055055;28;20397;-72
2024/02/25 12:10:23;;;;;;;2.90;0.87;;;22.50;55.00;;;;;;5054593;28;20445;-72
2024/02/25 12:12:50;;;;;;;1.73;0.67;;;21.00;54.90;;;;;;5051952;28;20923;-71
2024/02/25 12:15:16;;;;;;;1.10;0.70;;;20.30;56.50;;;;;;5034835;28;20402;-72
2024/02/25 12:17:42;;;;;;;0.90;0.70;;;19.50;55.20;;;;;;5033606;28;20480;-71
2024/02/25 12:20:10;;;;;;;1.13;0.63;;;19.70;55.90;;;;;;5034696;28;20623;-72
2024/02/25 12:22:38;;;;;;;1.43;1.00;;;19.50;54.00;;;;;;5035551;28;20410;-71
2024/02/25 12:25:05;;;;;;;2.47;0.67;;;18.80;55.10;;;;;;5053581;28;20437;-72
2024/02/25 12:27:31;;;;;;;0.90;0.50;;;19.60;56.30;;;;;;5054699;28;20440;-72
2024/02/25 12:29:59;;;;;;;1.77;0.77;;;19.90;55.20;;;;;;5054429;28;20985;-72
2024/02/25 12:32:26;;;;;;;1.00;0.70;;;19.90;54.90;;;;;;5053447;28;20466;-71
2024/02/25 12:34:52;;;;;;;1.40;0.70;;;19.20;53.50;;;;;;5035058;28;20413;-71
2024/02/25 12:37:21;;;;;;;1.43;1.00;;;18.90;55.00;;;;;;5034406;28;20414;-71
2024/02/25 12:39:48;;;;;;;0.90;0.60;;;18.70;53.90;;;;;;5034629;28;20536;-72
2024/02/25 12:42:16;;;;;;;0.93;0.77;;;18.90;55.30;;;;;;5034366;28;20468;-71
2024/02/25 12:44:42;;;;;;;0.90;0.63;;;19.10;52.90;;;;;;5051905;28;20928;-71
2024/02/25 12:47:10;;;;;;;1.20;0.60;;;19.80;53.10;;;;;;5054169;28;20506;-72
2024/02/25 12:49:36;;;;;;;3.60;0.60;;;19.80;50.30;;;;;;5052910;28;20841;-72
2024/02/25 12:52:03;;;;;;;1.03;0.60;;;20.50;49.70;;;;;;5054057;28;20401;-72